sensor_id;sensor_type;location;lat;lon;timestamp;P1;durP1;ratioP1;P2;durP2;ratioP2
41261;SDS011;29629;52.532;13.352;2022-07-31T00:00:22;16.90;;;4.95;;
41261;SDS011;29629;52.532;13.352;2022-07-31T00:02:50;15.07;;;4.72;;
41261;SDS011;29629;52.532;13.352;2022-07-31T00:05:17;13.63;;;4.57;;
41261;SDS011;29629;52.532;13.352;2022-07-31T00:07:44;13.07;;;4.63;;
41261;SDS011;29629;52.532;13.352;2022-07-31T00:10:11;17.20;;;5.13;;
41261;SDS011;29629;52.532;13.352;2022-07-31T00:12:38;9.38;;;3.80;;
41261;SDS011;29629;52.532;13.352;2022-07-31T00:15:05;21.27;;;6.22;;
41261;SDS011;29629;52.532;13.352;2022-07-31T00:17:35;20.20;;;5.53;;
41261;SDS011;29629;52.532;13.352;2022-07-31T00:20:03;15.55;;;4.50;;
41261;SDS011;29629;52.532;13.352;2022-07-31T00:22:31;16.67;;;5.30;;
41261;SDS011;29629;52.532;13.352;2022-07-31T00:24:59;15.50;;;4.82;;
41261;SDS011;29629;52.532;13.352;2022-07-31T00:27:26;13.27;;;4.70;;
41261;SDS011;29629;52.532;13.352;2022-07-31T00:29:53;14.90;;;5.32;;
41261;SDS011;29629;52.532;13.352;2022-07-31T00:32:20;17.73;;;5.53;;
41261;SDS011;29629;52.532;13.352;2022-07-31T00:34:48;10.13;;;3.92;;
41261;SDS011;29629;52.532;13.352;2022-07-31T00:37:15;13.27;;;4.53;;
41261;SDS011;29629;52.532;13.352;2022-07-31T00:39:41;17.77;;;5.55;;
41261;SDS011;29629;52.532;13.352;2022-07-31T00:42:15;17.88;;;5.28;;
41261;SDS011;29629;52.532;13.352;2022-07-31T00:44:42;16.60;;;5.55;;
41261;SDS011;29629;52.532;13.352;2022-07-31T00:47:09;13.68;;;4.82;;
41261;SDS011;29629;52.532;13.352;2022-07-31T00:49:36;16.50;;;5.38;;
41261;SDS011;29629;52.532;13.352;2022-07-31T00:52:04;23.27;;;6.68;;
41261;SDS011;29629;52.532;13.352;2022-07-31T00:54:32;23.00;;;6.65;;
41261;SDS011;29629;52.532;13.352;2022-07-31T00:56:59;8.95;;;3.85;;
41261;SDS011;29629;52.532;13.352;2022-07-31T00:59:26;7.07;;;3.58;;
41261;SDS011;29629;52.532;13.352;2022-07-31T01:01:53;18.55;;;4.97;;
41261;SDS011;29629;52.532;13.352;2022-07-31T01:04:20;13.40;;;4.88;;
41261;SDS011;29629;52.532;13.352;2022-07-31T01:06:47;21.88;;;6.28;;
41261;SDS011;29629;52.532;13.352;2022-07-31T01:09:16;15.88;;;5.40;;
41261;SDS011;29629;52.532;13.352;2022-07-31T01:11:43;15.18;;;5.03;;
41261;SDS011;29629;52.532;13.352;2022-07-31T01:14:15;17.30;;;5.25;;
41261;SDS011;29629;52.532;13.352;2022-07-31T01:16:45;19.63;;;5.35;;
41261;SDS011;29629;52.532;13.352;2022-07-31T01:19:17;13.15;;;4.78;;
41261;SDS011;29629;52.532;13.352;2022-07-31T01:21:53;14.50;;;5.63;;
41261;SDS011;29629;52.532;13.352;2022-07-31T01:24:38;24.85;;;7.00;;
41261;SDS011;29629;52.532;13.352;2022-07-31T01:27:21;16.60;;;5.72;;
41261;SDS011;29629;52.532;13.352;2022-07-31T01:29:54;16.20;;;5.57;;
41261;SDS011;29629;52.532;13.352;2022-07-31T01:32:24;14.60;;;5.22;;
41261;SDS011;29629;52.532;13.352;2022-07-31T01:34:56;5.97;;;4.10;;
41261;SDS011;29629;52.532;13.352;2022-07-31T01:37:29;16.45;;;6.00;;
41261;SDS011;29629;52.532;13.352;2022-07-31T01:39:58;12.88;;;5.07;;
41261;SDS011;29629;52.532;13.352;2022-07-31T01:42:28;16.73;;;6.03;;
41261;SDS011;29629;52.532;13.352;2022-07-31T01:44:59;18.73;;;6.25;;
41261;SDS011;29629;52.532;13.352;2022-07-31T01:47:26;12.82;;;4.95;;
41261;SDS011;29629;52.532;13.352;2022-07-31T01:49:56;19.08;;;6.13;;
41261;SDS011;29629;52.532;13.352;2022-07-31T01:52:27;15.10;;;5.78;;
41261;SDS011;29629;52.532;13.352;2022-07-31T01:54:55;18.02;;;5.93;;
41261;SDS011;29629;52.532;13.352;2022-07-31T01:57:23;19.52;;;6.35;;
41261;SDS011;29629;52.532;13.352;2022-07-31T01:59:51;19.75;;;6.55;;
41261;SDS011;29629;52.532;13.352;2022-07-31T02:02:21;23.58;;;6.65;;
41261;SDS011;29629;52.532;13.352;2022-07-31T02:04:49;18.98;;;6.22;;
41261;SDS011;29629;52.532;13.352;2022-07-31T02:07:17;27.33;;;6.88;;
41261;SDS011;29629;52.532;13.352;2022-07-31T02:09:45;16.33;;;6.50;;
41261;SDS011;29629;52.532;13.352;2022-07-31T02:12:13;15.48;;;5.80;;
41261;SDS011;29629;52.532;13.352;2022-07-31T02:14:41;15.13;;;5.60;;
41261;SDS011;29629;52.532;13.352;2022-07-31T02:17:09;16.90;;;5.50;;
41261;SDS011;29629;52.532;13.352;2022-07-31T02:19:39;27.42;;;7.00;;
41261;SDS011;29629;52.532;13.352;2022-07-31T02:22:07;10.88;;;4.80;;
41261;SDS011;29629;52.532;13.352;2022-07-31T02:24:34;28.25;;;7.53;;
41261;SDS011;29629;52.532;13.352;2022-07-31T02:27:00;19.90;;;6.43;;
41261;SDS011;29629;52.532;13.352;2022-07-31T02:29:29;14.63;;;4.65;;
41261;SDS011;29629;52.532;13.352;2022-07-31T02:31:58;14.57;;;5.78;;
41261;SDS011;29629;52.532;13.352;2022-07-31T02:34:27;29.95;;;7.70;;
41261;SDS011;29629;52.532;13.352;2022-07-31T02:36:57;17.95;;;6.07;;
41261;SDS011;29629;52.532;13.352;2022-07-31T02:39:26;18.48;;;5.15;;
41261;SDS011;29629;52.532;13.352;2022-07-31T02:41:56;25.25;;;6.82;;
41261;SDS011;29629;52.532;13.352;2022-07-31T02:44:25;18.33;;;5.88;;
41261;SDS011;29629;52.532;13.352;2022-07-31T02:46:53;19.63;;;5.90;;
41261;SDS011;29629;52.532;13.352;2022-07-31T02:49:20;19.15;;;6.10;;
41261;SDS011;29629;52.532;13.352;2022-07-31T02:51:47;12.68;;;5.15;;
41261;SDS011;29629;52.532;13.352;2022-07-31T02:54:15;30.95;;;7.93;;
41261;SDS011;29629;52.532;13.352;2022-07-31T02:56:42;23.00;;;7.78;;
41261;SDS011;29629;52.532;13.352;2022-07-31T02:59:11;24.05;;;6.78;;
41261;SDS011;29629;52.532;13.352;2022-07-31T03:01:37;20.98;;;6.60;;
41261;SDS011;29629;52.532;13.352;2022-07-31T03:04:04;28.90;;;7.00;;
41261;SDS011;29629;52.532;13.352;2022-07-31T03:06:32;23.83;;;6.55;;
41261;SDS011;29629;52.532;13.352;2022-07-31T03:08:59;20.13;;;6.40;;
41261;SDS011;29629;52.532;13.352;2022-07-31T03:11:27;16.02;;;6.75;;
41261;SDS011;29629;52.532;13.352;2022-07-31T03:13:54;21.65;;;6.43;;
41261;SDS011;29629;52.532;13.352;2022-07-31T03:16:23;25.15;;;7.28;;
41261;SDS011;29629;52.532;13.352;2022-07-31T03:18:51;19.13;;;5.90;;
41261;SDS011;29629;52.532;13.352;2022-07-31T03:21:20;15.60;;;6.22;;
41261;SDS011;29629;52.532;13.352;2022-07-31T03:23:48;25.73;;;7.00;;
41261;SDS011;29629;52.532;13.352;2022-07-31T03:26:15;23.17;;;6.57;;
41261;SDS011;29629;52.532;13.352;2022-07-31T03:28:44;22.95;;;6.47;;
41261;SDS011;29629;52.532;13.352;2022-07-31T03:31:11;21.60;;;6.53;;
41261;SDS011;29629;52.532;13.352;2022-07-31T03:33:38;17.33;;;5.80;;
41261;SDS011;29629;52.532;13.352;2022-07-31T03:36:05;20.17;;;6.07;;
41261;SDS011;29629;52.532;13.352;2022-07-31T03:38:33;24.73;;;6.88;;
41261;SDS011;29629;52.532;13.352;2022-07-31T03:41:00;27.27;;;6.88;;
41261;SDS011;29629;52.532;13.352;2022-07-31T03:43:27;23.73;;;6.93;;
41261;SDS011;29629;52.532;13.352;2022-07-31T03:45:58;24.88;;;6.90;;
41261;SDS011;29629;52.532;13.352;2022-07-31T03:48:25;20.75;;;6.40;;
41261;SDS011;29629;52.532;13.352;2022-07-31T03:50:54;20.85;;;6.85;;
41261;SDS011;29629;52.532;13.352;2022-07-31T03:53:22;21.17;;;6.53;;
41261;SDS011;29629;52.532;13.352;2022-07-31T03:55:49;24.00;;;7.15;;
41261;SDS011;29629;52.532;13.352;2022-07-31T03:58:18;21.42;;;6.50;;
41261;SDS011;29629;52.532;13.352;2022-07-31T04:00:46;16.58;;;5.78;;
41261;SDS011;29629;52.532;13.352;2022-07-31T04:03:15;22.55;;;6.90;;
41261;SDS011;29629;52.532;13.352;2022-07-31T04:05:42;19.27;;;6.32;;
41261;SDS011;29629;52.532;13.352;2022-07-31T04:08:08;14.18;;;5.43;;
41261;SDS011;29629;52.532;13.352;2022-07-31T04:10:35;20.45;;;6.43;;
41261;SDS011;29629;52.532;13.352;2022-07-31T04:13:02;22.33;;;7.18;;
41261;SDS011;29629;52.532;13.352;2022-07-31T04:15:30;18.13;;;5.80;;
41261;SDS011;29629;52.532;13.352;2022-07-31T04:17:56;25.77;;;6.53;;
41261;SDS011;29629;52.532;13.352;2022-07-31T04:20:25;25.10;;;6.45;;
41261;SDS011;29629;52.532;13.352;2022-07-31T04:22:51;18.05;;;5.90;;
41261;SDS011;29629;52.532;13.352;2022-07-31T04:25:18;24.73;;;6.35;;
41261;SDS011;29629;52.532;13.352;2022-07-31T04:27:45;18.13;;;5.50;;
41261;SDS011;29629;52.532;13.352;2022-07-31T04:30:12;26.02;;;8.05;;
41261;SDS011;29629;52.532;13.352;2022-07-31T04:32:38;20.75;;;5.95;;
41261;SDS011;29629;52.532;13.352;2022-07-31T04:35:06;21.80;;;6.00;;
41261;SDS011;29629;52.532;13.352;2022-07-31T04:37:35;15.90;;;5.22;;
41261;SDS011;29629;52.532;13.352;2022-07-31T04:40:02;24.95;;;6.03;;
41261;SDS011;29629;52.532;13.352;2022-07-31T04:42:29;20.92;;;6.03;;
41261;SDS011;29629;52.532;13.352;2022-07-31T04:44:55;18.02;;;5.85;;
41261;SDS011;29629;52.532;13.352;2022-07-31T04:47:22;22.75;;;7.90;;
41261;SDS011;29629;52.532;13.352;2022-07-31T04:49:49;19.52;;;5.35;;
41261;SDS011;29629;52.532;13.352;2022-07-31T04:52:16;18.50;;;5.45;;
41261;SDS011;29629;52.532;13.352;2022-07-31T04:54:44;32.40;;;7.85;;
41261;SDS011;29629;52.532;13.352;2022-07-31T04:57:11;11.38;;;4.55;;
41261;SDS011;29629;52.532;13.352;2022-07-31T04:59:38;18.00;;;5.22;;
41261;SDS011;29629;52.532;13.352;2022-07-31T05:02:04;22.02;;;5.80;;
41261;SDS011;29629;52.532;13.352;2022-07-31T05:04:31;27.73;;;6.60;;
41261;SDS011;29629;52.532;13.352;2022-07-31T05:06:58;18.55;;;5.15;;
41261;SDS011;29629;52.532;13.352;2022-07-31T05:09:25;22.90;;;6.85;;
41261;SDS011;29629;52.532;13.352;2022-07-31T05:11:58;21.42;;;5.68;;
41261;SDS011;29629;52.532;13.352;2022-07-31T05:14:25;23.48;;;6.05;;
41261;SDS011;29629;52.532;13.352;2022-07-31T05:16:52;14.05;;;4.65;;
41261;SDS011;29629;52.532;13.352;2022-07-31T05:19:19;14.25;;;4.60;;
41261;SDS011;29629;52.532;13.352;2022-07-31T05:21:46;24.63;;;6.28;;
41261;SDS011;29629;52.532;13.352;2022-07-31T05:24:13;10.95;;;4.43;;
41261;SDS011;29629;52.532;13.352;2022-07-31T05:26:41;17.45;;;5.00;;
41261;SDS011;29629;52.532;13.352;2022-07-31T05:29:10;26.00;;;6.55;;
41261;SDS011;29629;52.532;13.352;2022-07-31T05:31:37;14.48;;;4.85;;
41261;SDS011;29629;52.532;13.352;2022-07-31T05:34:04;14.55;;;4.93;;
41261;SDS011;29629;52.532;13.352;2022-07-31T05:36:31;20.58;;;6.30;;
41261;SDS011;29629;52.532;13.352;2022-07-31T05:38:57;22.00;;;6.10;;
41261;SDS011;29629;52.532;13.352;2022-07-31T05:41:24;15.75;;;4.70;;
41261;SDS011;29629;52.532;13.352;2022-07-31T05:43:51;18.17;;;5.68;;
41261;SDS011;29629;52.532;13.352;2022-07-31T05:46:19;23.35;;;5.93;;
41261;SDS011;29629;52.532;13.352;2022-07-31T05:48:46;16.45;;;5.18;;
41261;SDS011;29629;52.532;13.352;2022-07-31T05:51:13;12.38;;;4.78;;
41261;SDS011;29629;52.532;13.352;2022-07-31T05:53:39;12.57;;;4.60;;
41261;SDS011;29629;52.532;13.352;2022-07-31T05:56:06;20.75;;;5.90;;
41261;SDS011;29629;52.532;13.352;2022-07-31T05:58:33;12.38;;;4.53;;
41261;SDS011;29629;52.532;13.352;2022-07-31T06:01:00;14.95;;;5.03;;
41261;SDS011;29629;52.532;13.352;2022-07-31T06:03:29;21.33;;;5.63;;
41261;SDS011;29629;52.532;13.352;2022-07-31T06:06:00;19.17;;;5.60;;
41261;SDS011;29629;52.532;13.352;2022-07-31T06:08:28;18.38;;;5.45;;
41261;SDS011;29629;52.532;13.352;2022-07-31T06:10:55;17.35;;;5.43;;
41261;SDS011;29629;52.532;13.352;2022-07-31T06:13:23;18.00;;;5.32;;
41261;SDS011;29629;52.532;13.352;2022-07-31T06:15:50;18.35;;;5.13;;
41261;SDS011;29629;52.532;13.352;2022-07-31T06:18:17;23.90;;;5.47;;
41261;SDS011;29629;52.532;13.352;2022-07-31T06:20:46;14.27;;;4.63;;
41261;SDS011;29629;52.532;13.352;2022-07-31T06:23:13;12.05;;;4.40;;
41261;SDS011;29629;52.532;13.352;2022-07-31T06:25:40;8.82;;;3.78;;
41261;SDS011;29629;52.532;13.352;2022-07-31T06:28:06;22.67;;;6.35;;
41261;SDS011;29629;52.532;13.352;2022-07-31T06:30:33;19.00;;;5.90;;
41261;SDS011;29629;52.532;13.352;2022-07-31T06:33:00;15.57;;;5.38;;
41261;SDS011;29629;52.532;13.352;2022-07-31T06:35:27;19.67;;;5.90;;
41261;SDS011;29629;52.532;13.352;2022-07-31T06:37:55;22.02;;;6.07;;
41261;SDS011;29629;52.532;13.352;2022-07-31T06:40:22;20.15;;;5.75;;
41261;SDS011;29629;52.532;13.352;2022-07-31T06:42:48;24.40;;;6.97;;
41261;SDS011;29629;52.532;13.352;2022-07-31T06:45:15;22.83;;;6.40;;
41261;SDS011;29629;52.532;13.352;2022-07-31T06:47:42;17.10;;;5.38;;
41261;SDS011;29629;52.532;13.352;2022-07-31T06:50:10;14.18;;;4.55;;
41261;SDS011;29629;52.532;13.352;2022-07-31T06:52:36;19.25;;;5.60;;
41261;SDS011;29629;52.532;13.352;2022-07-31T06:55:05;17.45;;;5.78;;
41261;SDS011;29629;52.532;13.352;2022-07-31T06:57:33;14.20;;;5.57;;
41261;SDS011;29629;52.532;13.352;2022-07-31T06:59:59;26.17;;;7.32;;
41261;SDS011;29629;52.532;13.352;2022-07-31T07:02:26;25.33;;;7.13;;
41261;SDS011;29629;52.532;13.352;2022-07-31T07:04:53;19.75;;;6.05;;
41261;SDS011;29629;52.532;13.352;2022-07-31T07:07:20;17.45;;;5.88;;
41261;SDS011;29629;52.532;13.352;2022-07-31T07:09:47;23.55;;;6.15;;
41261;SDS011;29629;52.532;13.352;2022-07-31T07:12:15;19.35;;;5.75;;
41261;SDS011;29629;52.532;13.352;2022-07-31T07:14:42;24.63;;;6.88;;
41261;SDS011;29629;52.532;13.352;2022-07-31T07:17:08;26.23;;;6.50;;
41261;SDS011;29629;52.532;13.352;2022-07-31T07:19:38;15.77;;;5.47;;
41261;SDS011;29629;52.532;13.352;2022-07-31T07:22:05;16.55;;;5.22;;
41261;SDS011;29629;52.532;13.352;2022-07-31T07:24:32;28.27;;;8.30;;
41261;SDS011;29629;52.532;13.352;2022-07-31T07:26:59;22.15;;;6.97;;
41261;SDS011;29629;52.532;13.352;2022-07-31T07:29:27;19.55;;;6.47;;
41261;SDS011;29629;52.532;13.352;2022-07-31T07:31:54;22.00;;;6.97;;
41261;SDS011;29629;52.532;13.352;2022-07-31T07:34:21;24.00;;;7.15;;
41261;SDS011;29629;52.532;13.352;2022-07-31T07:36:48;18.30;;;6.57;;
41261;SDS011;29629;52.532;13.352;2022-07-31T07:39:15;20.90;;;7.18;;
41261;SDS011;29629;52.532;13.352;2022-07-31T07:41:42;20.23;;;6.75;;
41261;SDS011;29629;52.532;13.352;2022-07-31T07:44:08;25.55;;;7.78;;
41261;SDS011;29629;52.532;13.352;2022-07-31T07:46:36;13.40;;;5.88;;
41261;SDS011;29629;52.532;13.352;2022-07-31T07:49:03;10.15;;;5.30;;
41261;SDS011;29629;52.532;13.352;2022-07-31T07:51:30;18.35;;;6.70;;
41261;SDS011;29629;52.532;13.352;2022-07-31T07:53:57;20.33;;;6.88;;
41261;SDS011;29629;52.532;13.352;2022-07-31T07:56:25;12.77;;;6.43;;
41261;SDS011;29629;52.532;13.352;2022-07-31T07:58:52;18.15;;;6.95;;
41261;SDS011;29629;52.532;13.352;2022-07-31T08:01:19;10.27;;;6.18;;
41261;SDS011;29629;52.532;13.352;2022-07-31T08:03:47;14.55;;;6.68;;
41261;SDS011;29629;52.532;13.352;2022-07-31T08:06:14;18.20;;;7.50;;
41261;SDS011;29629;52.532;13.352;2022-07-31T08:08:41;16.45;;;7.07;;
41261;SDS011;29629;52.532;13.352;2022-07-31T08:11:08;16.67;;;7.30;;
41261;SDS011;29629;52.532;13.352;2022-07-31T08:13:34;16.60;;;8.43;;
41261;SDS011;29629;52.532;13.352;2022-07-31T08:16:01;15.38;;;7.15;;
41261;SDS011;29629;52.532;13.352;2022-07-31T08:18:28;22.23;;;7.65;;
41261;SDS011;29629;52.532;13.352;2022-07-31T08:20:57;21.60;;;8.00;;
41261;SDS011;29629;52.532;13.352;2022-07-31T08:23:23;21.92;;;8.40;;
41261;SDS011;29629;52.532;13.352;2022-07-31T08:25:50;23.67;;;8.90;;
41261;SDS011;29629;52.532;13.352;2022-07-31T08:28:17;16.30;;;8.38;;
41261;SDS011;29629;52.532;13.352;2022-07-31T08:30:44;19.55;;;8.77;;
41261;SDS011;29629;52.532;13.352;2022-07-31T08:33:11;19.25;;;8.43;;
41261;SDS011;29629;52.532;13.352;2022-07-31T08:35:37;14.10;;;7.30;;
41261;SDS011;29629;52.532;13.352;2022-07-31T08:38:05;16.60;;;7.15;;
41261;SDS011;29629;52.532;13.352;2022-07-31T08:40:32;15.18;;;7.55;;
41261;SDS011;29629;52.532;13.352;2022-07-31T08:42:59;13.13;;;7.07;;
41261;SDS011;29629;52.532;13.352;2022-07-31T08:45:26;21.83;;;8.52;;
41261;SDS011;29629;52.532;13.352;2022-07-31T08:47:54;12.18;;;7.00;;
41261;SDS011;29629;52.532;13.352;2022-07-31T08:50:24;12.75;;;7.25;;
41261;SDS011;29629;52.532;13.352;2022-07-31T08:52:51;14.93;;;7.72;;
41261;SDS011;29629;52.532;13.352;2022-07-31T08:55:23;17.35;;;7.70;;
41261;SDS011;29629;52.532;13.352;2022-07-31T08:57:50;18.15;;;8.10;;
41261;SDS011;29629;52.532;13.352;2022-07-31T09:00:17;17.17;;;8.43;;
41261;SDS011;29629;52.532;13.352;2022-07-31T09:02:46;13.60;;;8.23;;
41261;SDS011;29629;52.532;13.352;2022-07-31T09:05:13;13.38;;;7.68;;
41261;SDS011;29629;52.532;13.352;2022-07-31T09:07:41;16.08;;;7.90;;
41261;SDS011;29629;52.532;13.352;2022-07-31T09:10:18;15.55;;;8.30;;
41261;SDS011;29629;52.532;13.352;2022-07-31T09:12:47;18.83;;;8.95;;
41261;SDS011;29629;52.532;13.352;2022-07-31T09:15:21;14.05;;;8.50;;
41261;SDS011;29629;52.532;13.352;2022-07-31T09:17:49;18.25;;;8.75;;
41261;SDS011;29629;52.532;13.352;2022-07-31T09:20:16;16.88;;;9.30;;
41261;SDS011;29629;52.532;13.352;2022-07-31T09:22:45;13.43;;;9.38;;
41261;SDS011;29629;52.532;13.352;2022-07-31T09:25:13;16.70;;;10.10;;
41261;SDS011;29629;52.532;13.352;2022-07-31T09:27:43;16.58;;;10.80;;
41261;SDS011;29629;52.532;13.352;2022-07-31T09:30:12;16.38;;;11.00;;
41261;SDS011;29629;52.532;13.352;2022-07-31T09:32:39;12.75;;;9.65;;
41261;SDS011;29629;52.532;13.352;2022-07-31T09:35:07;11.52;;;9.50;;
41261;SDS011;29629;52.532;13.352;2022-07-31T09:37:35;14.40;;;9.35;;
41261;SDS011;29629;52.532;13.352;2022-07-31T09:40:04;12.00;;;9.38;;
41261;SDS011;29629;52.532;13.352;2022-07-31T09:42:37;13.57;;;10.20;;
41261;SDS011;29629;52.532;13.352;2022-07-31T09:45:21;13.87;;;10.87;;
41261;SDS011;29629;52.532;13.352;2022-07-31T09:48:01;18.58;;;12.50;;
41261;SDS011;29629;52.532;13.352;2022-07-31T09:50:29;10.52;;;9.55;;
41261;SDS011;29629;52.532;13.352;2022-07-31T09:52:56;15.13;;;11.20;;
41261;SDS011;29629;52.532;13.352;2022-07-31T09:55:25;17.70;;;10.68;;
41261;SDS011;29629;52.532;13.352;2022-07-31T09:57:52;12.52;;;10.20;;
41261;SDS011;29629;52.532;13.352;2022-07-31T10:00:23;20.17;;;12.48;;
41261;SDS011;29629;52.532;13.352;2022-07-31T10:02:52;11.70;;;10.80;;
41261;SDS011;29629;52.532;13.352;2022-07-31T10:05:20;16.20;;;11.23;;
41261;SDS011;29629;52.532;13.352;2022-07-31T10:07:49;16.45;;;11.23;;
41261;SDS011;29629;52.532;13.352;2022-07-31T10:10:16;14.05;;;10.73;;
41261;SDS011;29629;52.532;13.352;2022-07-31T10:12:46;16.35;;;11.35;;
41261;SDS011;29629;52.532;13.352;2022-07-31T10:15:16;15.90;;;11.63;;
41261;SDS011;29629;52.532;13.352;2022-07-31T10:17:46;17.50;;;12.02;;
41261;SDS011;29629;52.532;13.352;2022-07-31T10:20:18;12.67;;;11.47;;
41261;SDS011;29629;52.532;13.352;2022-07-31T10:22:47;15.32;;;12.02;;
41261;SDS011;29629;52.532;13.352;2022-07-31T10:25:19;17.08;;;11.77;;
41261;SDS011;29629;52.532;13.352;2022-07-31T10:27:49;14.65;;;11.82;;
41261;SDS011;29629;52.532;13.352;2022-07-31T10:30:18;12.52;;;11.05;;
41261;SDS011;29629;52.532;13.352;2022-07-31T10:32:47;13.82;;;11.15;;
41261;SDS011;29629;52.532;13.352;2022-07-31T10:35:14;13.80;;;11.60;;
41261;SDS011;29629;52.532;13.352;2022-07-31T10:37:42;15.60;;;11.43;;
41261;SDS011;29629;52.532;13.352;2022-07-31T10:40:17;15.30;;;11.57;;
41261;SDS011;29629;52.532;13.352;2022-07-31T10:42:51;11.30;;;10.55;;
41261;SDS011;29629;52.532;13.352;2022-07-31T10:45:27;11.80;;;10.90;;
41261;SDS011;29629;52.532;13.352;2022-07-31T10:47:57;12.77;;;11.57;;
41261;SDS011;29629;52.532;13.352;2022-07-31T10:50:27;13.73;;;11.27;;
41261;SDS011;29629;52.532;13.352;2022-07-31T10:53:05;11.70;;;10.52;;
41261;SDS011;29629;52.532;13.352;2022-07-31T10:55:32;12.57;;;11.07;;
41261;SDS011;29629;52.532;13.352;2022-07-31T10:58:05;12.05;;;10.80;;
41261;SDS011;29629;52.532;13.352;2022-07-31T11:00:33;11.00;;;10.27;;
41261;SDS011;29629;52.532;13.352;2022-07-31T11:03:11;13.10;;;10.98;;
41261;SDS011;29629;52.532;13.352;2022-07-31T11:05:39;11.88;;;10.80;;
41261;SDS011;29629;52.532;13.352;2022-07-31T11:08:17;12.50;;;10.52;;
41261;SDS011;29629;52.532;13.352;2022-07-31T11:10:47;11.00;;;10.20;;
41261;SDS011;29629;52.532;13.352;2022-07-31T11:13:14;10.50;;;9.75;;
41261;SDS011;29629;52.532;13.352;2022-07-31T11:15:41;16.58;;;11.13;;
41261;SDS011;29629;52.532;13.352;2022-07-31T11:18:14;15.55;;;11.15;;
41261;SDS011;29629;52.532;13.352;2022-07-31T11:20:42;12.95;;;10.65;;
41261;SDS011;29629;52.532;13.352;2022-07-31T11:23:12;12.00;;;10.82;;
41261;SDS011;29629;52.532;13.352;2022-07-31T11:25:41;13.25;;;10.98;;
41261;SDS011;29629;52.532;13.352;2022-07-31T11:28:10;15.32;;;11.13;;
41261;SDS011;29629;52.532;13.352;2022-07-31T11:30:51;17.00;;;11.35;;
41261;SDS011;29629;52.532;13.352;2022-07-31T11:33:34;13.25;;;10.95;;
41261;SDS011;29629;52.532;13.352;2022-07-31T11:36:08;14.88;;;10.82;;
41261;SDS011;29629;52.532;13.352;2022-07-31T11:38:38;14.23;;;10.77;;
41261;SDS011;29629;52.532;13.352;2022-07-31T11:41:06;18.10;;;11.40;;
41261;SDS011;29629;52.532;13.352;2022-07-31T11:43:33;16.38;;;10.18;;
41261;SDS011;29629;52.532;13.352;2022-07-31T11:46:02;16.42;;;10.15;;
41261;SDS011;29629;52.532;13.352;2022-07-31T11:48:29;19.10;;;10.65;;
41261;SDS011;29629;52.532;13.352;2022-07-31T11:50:58;16.35;;;9.43;;
41261;SDS011;29629;52.532;13.352;2022-07-31T11:53:25;17.48;;;9.60;;
41261;SDS011;29629;52.532;13.352;2022-07-31T11:55:53;17.02;;;10.40;;
41261;SDS011;29629;52.532;13.352;2022-07-31T11:58:21;15.15;;;10.18;;
41261;SDS011;29629;52.532;13.352;2022-07-31T12:00:50;15.23;;;10.25;;
41261;SDS011;29629;52.532;13.352;2022-07-31T12:03:19;17.83;;;10.57;;
41261;SDS011;29629;52.532;13.352;2022-07-31T12:05:47;17.58;;;10.35;;
41261;SDS011;29629;52.532;13.352;2022-07-31T12:08:17;18.10;;;10.32;;
41261;SDS011;29629;52.532;13.352;2022-07-31T12:10:46;12.27;;;9.13;;
41261;SDS011;29629;52.532;13.352;2022-07-31T12:13:14;11.73;;;8.43;;
41261;SDS011;29629;52.532;13.352;2022-07-31T12:15:52;13.93;;;8.73;;
41261;SDS011;29629;52.532;13.352;2022-07-31T12:18:20;17.45;;;8.55;;
41261;SDS011;29629;52.532;13.352;2022-07-31T12:20:50;15.95;;;7.65;;
41261;SDS011;29629;52.532;13.352;2022-07-31T12:23:19;13.15;;;6.97;;
41261;SDS011;29629;52.532;13.352;2022-07-31T12:25:46;16.75;;;7.57;;
41261;SDS011;29629;52.532;13.352;2022-07-31T12:28:13;12.20;;;6.95;;
41261;SDS011;29629;52.532;13.352;2022-07-31T12:30:41;17.80;;;8.25;;
41261;SDS011;29629;52.532;13.352;2022-07-31T12:33:09;11.95;;;7.03;;
41261;SDS011;29629;52.532;13.352;2022-07-31T12:35:37;18.88;;;7.57;;
41261;SDS011;29629;52.532;13.352;2022-07-31T12:38:05;16.45;;;7.90;;
41261;SDS011;29629;52.532;13.352;2022-07-31T12:40:34;20.55;;;8.35;;
41261;SDS011;29629;52.532;13.352;2022-07-31T12:43:01;15.68;;;6.88;;
41261;SDS011;29629;52.532;13.352;2022-07-31T12:45:29;19.42;;;7.28;;
41261;SDS011;29629;52.532;13.352;2022-07-31T12:47:57;14.55;;;6.28;;
41261;SDS011;29629;52.532;13.352;2022-07-31T12:50:24;16.20;;;6.97;;
41261;SDS011;29629;52.532;13.352;2022-07-31T12:52:52;22.70;;;7.88;;
41261;SDS011;29629;52.532;13.352;2022-07-31T12:55:21;21.15;;;8.15;;
41261;SDS011;29629;52.532;13.352;2022-07-31T12:57:50;18.88;;;8.35;;
41261;SDS011;29629;52.532;13.352;2022-07-31T13:00:17;16.10;;;7.80;;
41261;SDS011;29629;52.532;13.352;2022-07-31T13:02:46;15.75;;;8.00;;
41261;SDS011;29629;52.532;13.352;2022-07-31T13:05:13;12.88;;;7.32;;
41261;SDS011;29629;52.532;13.352;2022-07-31T13:07:40;15.70;;;8.45;;
41261;SDS011;29629;52.532;13.352;2022-07-31T13:10:07;11.65;;;7.40;;
41261;SDS011;29629;52.532;13.352;2022-07-31T13:12:34;13.25;;;7.78;;
41261;SDS011;29629;52.532;13.352;2022-07-31T13:15:02;11.98;;;7.90;;
41261;SDS011;29629;52.532;13.352;2022-07-31T13:17:29;15.05;;;8.35;;
41261;SDS011;29629;52.532;13.352;2022-07-31T13:19:56;15.40;;;8.32;;
41261;SDS011;29629;52.532;13.352;2022-07-31T13:22:23;11.38;;;7.40;;
41261;SDS011;29629;52.532;13.352;2022-07-31T13:24:50;16.38;;;8.25;;
41261;SDS011;29629;52.532;13.352;2022-07-31T13:27:17;19.42;;;8.07;;
41261;SDS011;29629;52.532;13.352;2022-07-31T13:29:44;19.55;;;8.00;;
41261;SDS011;29629;52.532;13.352;2022-07-31T13:32:12;20.67;;;7.10;;
41261;SDS011;29629;52.532;13.352;2022-07-31T13:34:40;21.65;;;8.07;;
41261;SDS011;29629;52.532;13.352;2022-07-31T13:37:07;8.93;;;5.45;;
41261;SDS011;29629;52.532;13.352;2022-07-31T13:39:34;17.75;;;6.68;;
41261;SDS011;29629;52.532;13.352;2022-07-31T13:42:00;16.35;;;6.22;;
41261;SDS011;29629;52.532;13.352;2022-07-31T13:44:27;19.02;;;6.75;;
41261;SDS011;29629;52.532;13.352;2022-07-31T13:46:54;14.65;;;6.50;;
41261;SDS011;29629;52.532;13.352;2022-07-31T13:49:22;11.18;;;5.90;;
41261;SDS011;29629;52.532;13.352;2022-07-31T13:51:53;11.45;;;5.72;;
41261;SDS011;29629;52.532;13.352;2022-07-31T13:54:20;16.73;;;6.00;;
41261;SDS011;29629;52.532;13.352;2022-07-31T13:56:47;11.32;;;5.25;;
41261;SDS011;29629;52.532;13.352;2022-07-31T13:59:14;19.67;;;6.78;;
41261;SDS011;29629;52.532;13.352;2022-07-31T14:01:41;15.82;;;6.25;;
41261;SDS011;29629;52.532;13.352;2022-07-31T14:04:08;15.57;;;5.97;;
41261;SDS011;29629;52.532;13.352;2022-07-31T14:06:36;15.10;;;5.78;;
41261;SDS011;29629;52.532;13.352;2022-07-31T14:09:03;12.55;;;5.32;;
41261;SDS011;29629;52.532;13.352;2022-07-31T14:11:29;16.70;;;6.30;;
41261;SDS011;29629;52.532;13.352;2022-07-31T14:13:56;15.13;;;5.65;;
41261;SDS011;29629;52.532;13.352;2022-07-31T14:16:23;15.55;;;5.60;;
41261;SDS011;29629;52.532;13.352;2022-07-31T14:18:50;14.52;;;5.60;;
41261;SDS011;29629;52.532;13.352;2022-07-31T14:21:17;16.85;;;5.82;;
41261;SDS011;29629;52.532;13.352;2022-07-31T14:23:45;17.33;;;5.70;;